This demonstration page uses our WeatherBlox Daily Observations layout. Learn more.

41.55636, -103.73856

Hourly Observations for February 2, 2019

Temp ( °F °C ) Dew Point ( °F °C ) Humidity (%) Winds ( mph kmh ) Pressure ( in mb ) Visibility ( mi km ) Precip ( " mm )
12:56 am 00:56 Clear 38 3.4 22 -5.4 53 53 WNW 9 15 30 1016 10 16.0934 N/A
1:56 am 01:56 Clear 37 2.8 23 -5.1 56 56 W 12 19 30 1016 10 16.0934 N/A
2:56 am 02:56 Clear 36 2.3 23 -4.8 60 60 W 12 19 30 1016 10 16.0934 N/A
3:58 am 03:58 Clear 38 3.1 23 -5 56 56 W 10 17 29.95 1014 10 16.0934 N/A
4:58 am 04:58 Clear 34 1.3 23 -5 63 63 WSW 10 17 29.96 1015 10 16.0934 N/A
5:58 am 05:58 Clear 37 2.5 22 -5.5 56 56 W 13 20 29.91 1013 10 16.0934 N/A
6:58 am 06:58 Clear 37 2.7 21 -6.1 53 53 W 10 17 29.88 1012 10 16.0934 N/A
7:58 am 07:58 Clear 42 5.6 18 -7.7 38 38 WSW 16 26 29.81 1010 10 16.0934 N/A
8:58 am 08:58 Clear 35 1.4 21 -6.3 57 57 WSW 10 17 29.85 1011 10 16.0934 N/A
9:58 am 09:58 Clear 36 2.1 20 -6.6 53 53 W 13 20 29.93 1013 10 16.0934 N/A
10:58 am 10:58 Clear 37 2.5 19 -7.2 49 49 W 13 20 29.9 1012 10 16.0934 N/A
11:58 am 11:58 Clear 34 1.2 18 -7.6 52 52 W 14 22 29.86 1011 10 16.0934 N/A
12:58 pm 12:58 Clear 37 2.7 15 -9.3 41 41 WNW 16 26 29.87 1012 10 16.0934 N/A
1:58 pm 13:58 Clear 36 2.1 16 -8.9 44 44 W 14 22 29.88 1012 10 16.0934 N/A
2:58 pm 14:58 Sunny 40 4.4 17 -8.5 39 39 W 14 22 29.85 1011 10 16.0934 N/A
3:58 pm 15:58 Sunny 44 6.8 19 -7.4 36 36 W 12 19 29.82 1010 10 16.0934 N/A
4:58 pm 16:58 Sunny 49 9.3 20 -6.4 33 33 W 20 31 29.8 1009 10 16.0934 N/A
5:58 pm 17:58 Sunny 53 11.9 22 -5.3 30 30 W 18 30 29.77 1008 10 16.0934 N/A
6:58 pm 18:58 Sunny 56 13.2 22 -5.3 27 27 W 24 39 29.72 1007 10 16.0934 N/A
7:58 pm 19:58 Sunny 56 13.6 25 -3.9 30 30 W 29 46 29.66 1004 10 16.0934 N/A
8:58 pm 20:58 Sunny 56 13.1 25 -4.1 30 30 W 33 54 29.68 1005 10 16.0934 N/A
9:58 pm 21:58 Sunny 53 11.8 24 -4.4 32 32 WNW 17 28 29.7 1006 10 16.0934 N/A
10:58 pm 22:58 Sunny 53 11.6 24 -4.6 32 32 W 22 35 29.68 1005 10 16.0934 N/A

Powered by AerisWeather